sensor_id;sensor_type;location;lat;lon;timestamp;P1;durP1;ratioP1;P2;durP2;ratioP2
48849;SDS011;63210;53.370;6.770;2022-10-22T00:01:57;28.27;;;16.15;;
48849;SDS011;63210;53.370;6.770;2022-10-22T00:04:22;34.88;;;16.42;;
48849;SDS011;63210;53.370;6.770;2022-10-22T00:06:47;36.28;;;19.98;;
48849;SDS011;63210;53.370;6.770;2022-10-22T00:09:15;22.88;;;15.00;;
48849;SDS011;63210;53.370;6.770;2022-10-22T00:11:48;34.53;;;16.58;;
48849;SDS011;63210;53.370;6.770;2022-10-22T00:14:22;28.42;;;15.65;;
48849;SDS011;63210;53.370;6.770;2022-10-22T00:16:48;25.55;;;14.68;;
48849;SDS011;63210;53.370;6.770;2022-10-22T00:19:15;19.60;;;13.57;;
48849;SDS011;63210;53.370;6.770;2022-10-22T00:21:41;17.70;;;12.27;;
48849;SDS011;63210;53.370;6.770;2022-10-22T00:24:06;26.65;;;14.30;;
48849;SDS011;63210;53.370;6.770;2022-10-22T00:26:31;24.13;;;14.38;;
48849;SDS011;63210;53.370;6.770;2022-10-22T00:28:57;32.22;;;17.45;;
48849;SDS011;63210;53.370;6.770;2022-10-22T00:31:25;28.52;;;15.25;;
48849;SDS011;63210;53.370;6.770;2022-10-22T00:33:50;21.00;;;12.90;;
48849;SDS011;63210;53.370;6.770;2022-10-22T00:36:15;30.23;;;14.32;;
48849;SDS011;63210;53.370;6.770;2022-10-22T00:38:42;29.55;;;15.60;;
48849;SDS011;63210;53.370;6.770;2022-10-22T00:41:07;25.75;;;13.63;;
48849;SDS011;63210;53.370;6.770;2022-10-22T00:43:51;28.63;;;14.48;;
48849;SDS011;63210;53.370;6.770;2022-10-22T00:46:17;36.15;;;16.33;;
48849;SDS011;63210;53.370;6.770;2022-10-22T00:48:45;26.23;;;15.03;;
48849;SDS011;63210;53.370;6.770;2022-10-22T00:51:10;28.88;;;15.10;;
48849;SDS011;63210;53.370;6.770;2022-10-22T00:56:01;25.07;;;13.57;;
48849;SDS011;63210;53.370;6.770;2022-10-22T00:58:27;26.42;;;13.50;;
48849;SDS011;63210;53.370;6.770;2022-10-22T01:00:53;27.95;;;14.32;;
48849;SDS011;63210;53.370;6.770;2022-10-22T01:03:22;26.67;;;13.80;;
48849;SDS011;63210;53.370;6.770;2022-10-22T01:05:55;25.63;;;15.07;;
48849;SDS011;63210;53.370;6.770;2022-10-22T01:14:03;18.02;;;11.80;;
48849;SDS011;63210;53.370;6.770;2022-10-22T01:16:39;20.50;;;12.50;;
48849;SDS011;63210;53.370;6.770;2022-10-22T01:22:03;23.02;;;13.15;;
48849;SDS011;63210;53.370;6.770;2022-10-22T01:27:51;25.17;;;13.82;;
48849;SDS011;63210;53.370;6.770;2022-10-22T01:30:06;22.27;;;13.05;;
48849;SDS011;63210;53.370;6.770;2022-10-22T01:32:33;20.20;;;13.18;;
48849;SDS011;63210;53.370;6.770;2022-10-22T01:35:04;22.65;;;12.93;;
48849;SDS011;63210;53.370;6.770;2022-10-22T01:37:35;20.83;;;12.02;;
48849;SDS011;63210;53.370;6.770;2022-10-22T01:40:02;29.15;;;12.98;;
48849;SDS011;63210;53.370;6.770;2022-10-22T01:42:29;16.77;;;11.90;;
48849;SDS011;63210;53.370;6.770;2022-10-22T01:44:54;22.00;;;11.77;;
48849;SDS011;63210;53.370;6.770;2022-10-22T01:50:03;16.17;;;10.73;;
48849;SDS011;63210;53.370;6.770;2022-10-22T01:55:01;16.90;;;10.70;;
48849;SDS011;63210;53.370;6.770;2022-10-22T02:05:08;22.13;;;12.70;;
48849;SDS011;63210;53.370;6.770;2022-10-22T02:07:42;24.85;;;12.25;;
48849;SDS011;63210;53.370;6.770;2022-10-22T02:10:10;23.33;;;10.93;;
48849;SDS011;63210;53.370;6.770;2022-10-22T02:12:36;18.73;;;11.50;;
48849;SDS011;63210;53.370;6.770;2022-10-22T02:15:02;23.42;;;11.98;;
48849;SDS011;63210;53.370;6.770;2022-10-22T02:17:32;19.50;;;11.52;;
48849;SDS011;63210;53.370;6.770;2022-10-22T02:20:06;17.63;;;10.67;;
48849;SDS011;63210;53.370;6.770;2022-10-22T02:22:40;17.83;;;10.65;;
48849;SDS011;63210;53.370;6.770;2022-10-22T02:25:06;17.33;;;9.60;;
48849;SDS011;63210;53.370;6.770;2022-10-22T02:27:45;20.70;;;10.45;;
48849;SDS011;63210;53.370;6.770;2022-10-22T02:30:16;20.75;;;10.35;;
48849;SDS011;63210;53.370;6.770;2022-10-22T02:35:29;19.85;;;11.63;;
48849;SDS011;63210;53.370;6.770;2022-10-22T02:37:56;27.95;;;12.50;;
48849;SDS011;63210;53.370;6.770;2022-10-22T02:40:22;17.30;;;10.00;;
48849;SDS011;63210;53.370;6.770;2022-10-22T02:42:49;17.98;;;10.55;;
48849;SDS011;63210;53.370;6.770;2022-10-22T02:45:19;19.58;;;10.52;;
48849;SDS011;63210;53.370;6.770;2022-10-22T02:47:45;17.45;;;9.25;;
48849;SDS011;63210;53.370;6.770;2022-10-22T02:50:11;17.23;;;9.18;;
48849;SDS011;63210;53.370;6.770;2022-10-22T02:52:36;23.23;;;10.68;;
48849;SDS011;63210;53.370;6.770;2022-10-22T02:55:02;20.40;;;11.38;;
48849;SDS011;63210;53.370;6.770;2022-10-22T02:57:27;17.17;;;10.77;;
48849;SDS011;63210;53.370;6.770;2022-10-22T02:59:52;29.92;;;11.40;;
48849;SDS011;63210;53.370;6.770;2022-10-22T03:02:17;16.63;;;10.77;;
48849;SDS011;63210;53.370;6.770;2022-10-22T03:04:43;17.85;;;10.05;;
48849;SDS011;63210;53.370;6.770;2022-10-22T03:07:08;22.98;;;13.25;;
48849;SDS011;63210;53.370;6.770;2022-10-22T03:09:41;23.92;;;11.45;;
48849;SDS011;63210;53.370;6.770;2022-10-22T03:12:06;34.67;;;17.92;;
48849;SDS011;63210;53.370;6.770;2022-10-22T03:14:33;42.05;;;22.35;;
48849;SDS011;63210;53.370;6.770;2022-10-22T03:16:58;30.52;;;17.77;;
48849;SDS011;63210;53.370;6.770;2022-10-22T03:19:26;30.23;;;14.68;;
48849;SDS011;63210;53.370;6.770;2022-10-22T03:21:52;23.85;;;11.82;;
48849;SDS011;63210;53.370;6.770;2022-10-22T03:24:23;25.13;;;13.53;;
48849;SDS011;63210;53.370;6.770;2022-10-22T03:26:50;21.52;;;12.05;;
48849;SDS011;63210;53.370;6.770;2022-10-22T03:29:16;16.77;;;10.00;;
48849;SDS011;63210;53.370;6.770;2022-10-22T03:31:42;19.50;;;10.40;;
48849;SDS011;63210;53.370;6.770;2022-10-22T03:34:10;16.38;;;9.95;;
48849;SDS011;63210;53.370;6.770;2022-10-22T03:36:37;22.98;;;11.52;;
48849;SDS011;63210;53.370;6.770;2022-10-22T03:39:03;18.13;;;10.65;;
48849;SDS011;63210;53.370;6.770;2022-10-22T03:41:31;17.98;;;10.32;;
48849;SDS011;63210;53.370;6.770;2022-10-22T03:43:58;21.02;;;11.38;;
48849;SDS011;63210;53.370;6.770;2022-10-22T03:46:29;18.30;;;10.30;;
48849;SDS011;63210;53.370;6.770;2022-10-22T03:48:55;16.23;;;10.02;;
48849;SDS011;63210;53.370;6.770;2022-10-22T03:51:28;16.77;;;9.90;;
48849;SDS011;63210;53.370;6.770;2022-10-22T03:53:54;19.05;;;9.80;;
48849;SDS011;63210;53.370;6.770;2022-10-22T03:56:22;17.45;;;9.48;;
48849;SDS011;63210;53.370;6.770;2022-10-22T03:58:47;20.95;;;10.95;;
48849;SDS011;63210;53.370;6.770;2022-10-22T04:01:20;18.33;;;9.10;;
48849;SDS011;63210;53.370;6.770;2022-10-22T04:03:45;19.52;;;10.32;;
48849;SDS011;63210;53.370;6.770;2022-10-22T04:06:11;24.20;;;11.07;;
48849;SDS011;63210;53.370;6.770;2022-10-22T04:08:40;16.92;;;9.63;;
48849;SDS011;63210;53.370;6.770;2022-10-22T04:11:09;17.60;;;11.45;;
48849;SDS011;63210;53.370;6.770;2022-10-22T04:13:37;19.75;;;11.07;;
48849;SDS011;63210;53.370;6.770;2022-10-22T04:16:10;21.70;;;12.10;;
48849;SDS011;63210;53.370;6.770;2022-10-22T04:18:36;26.13;;;11.48;;
48849;SDS011;63210;53.370;6.770;2022-10-22T04:21:01;21.77;;;10.15;;
48849;SDS011;63210;53.370;6.770;2022-10-22T04:23:27;20.33;;;10.10;;
48849;SDS011;63210;53.370;6.770;2022-10-22T04:25:59;19.65;;;10.05;;
48849;SDS011;63210;53.370;6.770;2022-10-22T04:28:27;17.30;;;9.55;;
48849;SDS011;63210;53.370;6.770;2022-10-22T04:30:53;17.73;;;9.68;;
48849;SDS011;63210;53.370;6.770;2022-10-22T04:33:18;19.92;;;10.48;;
48849;SDS011;63210;53.370;6.770;2022-10-22T04:35:46;18.30;;;9.85;;
48849;SDS011;63210;53.370;6.770;2022-10-22T04:38:12;23.60;;;11.93;;
48849;SDS011;63210;53.370;6.770;2022-10-22T04:40:40;20.17;;;10.10;;
48849;SDS011;63210;53.370;6.770;2022-10-22T04:43:05;21.63;;;10.73;;
48849;SDS011;63210;53.370;6.770;2022-10-22T04:45:34;25.07;;;11.80;;
48849;SDS011;63210;53.370;6.770;2022-10-22T04:47:59;19.83;;;11.80;;
48849;SDS011;63210;53.370;6.770;2022-10-22T04:50:27;22.93;;;12.87;;
48849;SDS011;63210;53.370;6.770;2022-10-22T04:52:55;21.65;;;11.30;;
48849;SDS011;63210;53.370;6.770;2022-10-22T04:55:20;20.30;;;11.25;;
48849;SDS011;63210;53.370;6.770;2022-10-22T04:57:45;22.40;;;11.88;;
48849;SDS011;63210;53.370;6.770;2022-10-22T05:00:11;18.20;;;12.05;;
48849;SDS011;63210;53.370;6.770;2022-10-22T05:02:38;24.75;;;12.02;;
48849;SDS011;63210;53.370;6.770;2022-10-22T05:05:03;25.58;;;12.88;;
48849;SDS011;63210;53.370;6.770;2022-10-22T05:07:33;27.15;;;13.18;;
48849;SDS011;63210;53.370;6.770;2022-10-22T05:10:04;22.67;;;13.07;;
48849;SDS011;63210;53.370;6.770;2022-10-22T05:12:30;33.15;;;13.27;;
48849;SDS011;63210;53.370;6.770;2022-10-22T05:14:57;24.45;;;12.57;;
48849;SDS011;63210;53.370;6.770;2022-10-22T05:17:23;21.73;;;12.73;;
48849;SDS011;63210;53.370;6.770;2022-10-22T05:19:48;21.95;;;11.80;;
48849;SDS011;63210;53.370;6.770;2022-10-22T05:22:13;16.57;;;11.17;;
48849;SDS011;63210;53.370;6.770;2022-10-22T05:24:39;23.30;;;13.18;;
48849;SDS011;63210;53.370;6.770;2022-10-22T05:27:09;24.05;;;13.20;;
48849;SDS011;63210;53.370;6.770;2022-10-22T05:29:35;23.50;;;12.93;;
48849;SDS011;63210;53.370;6.770;2022-10-22T05:32:00;20.88;;;11.77;;
48849;SDS011;63210;53.370;6.770;2022-10-22T05:34:26;24.10;;;12.55;;
48849;SDS011;63210;53.370;6.770;2022-10-22T05:36:54;31.40;;;12.85;;
48849;SDS011;63210;53.370;6.770;2022-10-22T05:39:22;23.75;;;12.00;;
48849;SDS011;63210;53.370;6.770;2022-10-22T05:41:47;21.67;;;12.30;;
48849;SDS011;63210;53.370;6.770;2022-10-22T05:44:12;20.57;;;11.80;;
48849;SDS011;63210;53.370;6.770;2022-10-22T05:46:37;20.58;;;12.27;;
48849;SDS011;63210;53.370;6.770;2022-10-22T05:49:05;22.88;;;12.38;;
48849;SDS011;63210;53.370;6.770;2022-10-22T05:51:33;21.90;;;12.73;;
48849;SDS011;63210;53.370;6.770;2022-10-22T05:54:10;21.35;;;13.02;;
48849;SDS011;63210;53.370;6.770;2022-10-22T05:56:39;33.13;;;14.18;;
48849;SDS011;63210;53.370;6.770;2022-10-22T05:59:04;25.77;;;13.70;;
48849;SDS011;63210;53.370;6.770;2022-10-22T06:01:32;22.02;;;12.70;;
48849;SDS011;63210;53.370;6.770;2022-10-22T06:04:00;27.83;;;13.30;;
48849;SDS011;63210;53.370;6.770;2022-10-22T06:06:27;25.50;;;13.88;;
48849;SDS011;63210;53.370;6.770;2022-10-22T06:08:58;28.33;;;12.48;;
48849;SDS011;63210;53.370;6.770;2022-10-22T06:11:28;28.10;;;14.00;;
48849;SDS011;63210;53.370;6.770;2022-10-22T06:13:53;18.73;;;12.32;;
48849;SDS011;63210;53.370;6.770;2022-10-22T06:16:22;23.43;;;13.10;;
48849;SDS011;63210;53.370;6.770;2022-10-22T06:18:47;21.00;;;12.82;;
48849;SDS011;63210;53.370;6.770;2022-10-22T06:21:15;23.67;;;13.82;;
48849;SDS011;63210;53.370;6.770;2022-10-22T06:23:41;23.33;;;13.73;;
48849;SDS011;63210;53.370;6.770;2022-10-22T06:26:06;24.20;;;13.65;;
48849;SDS011;63210;53.370;6.770;2022-10-22T06:28:35;22.27;;;12.32;;
48849;SDS011;63210;53.370;6.770;2022-10-22T06:31:00;24.10;;;12.93;;
48849;SDS011;63210;53.370;6.770;2022-10-22T06:33:26;22.63;;;12.68;;
48849;SDS011;63210;53.370;6.770;2022-10-22T06:36:03;22.75;;;13.77;;
48849;SDS011;63210;53.370;6.770;2022-10-22T06:38:29;30.38;;;13.68;;
48849;SDS011;63210;53.370;6.770;2022-10-22T06:41:01;27.13;;;14.25;;
48849;SDS011;63210;53.370;6.770;2022-10-22T06:43:27;25.70;;;14.18;;
48849;SDS011;63210;53.370;6.770;2022-10-22T06:45:57;27.13;;;13.18;;
48849;SDS011;63210;53.370;6.770;2022-10-22T06:48:25;22.75;;;12.50;;
48849;SDS011;63210;53.370;6.770;2022-10-22T06:50:50;23.70;;;14.50;;
48849;SDS011;63210;53.370;6.770;2022-10-22T06:53:18;24.55;;;13.88;;
48849;SDS011;63210;53.370;6.770;2022-10-22T06:55:44;29.17;;;13.13;;
48849;SDS011;63210;53.370;6.770;2022-10-22T06:58:12;24.23;;;12.35;;
48849;SDS011;63210;53.370;6.770;2022-10-22T07:00:39;25.92;;;13.50;;
48849;SDS011;63210;53.370;6.770;2022-10-22T07:03:04;27.58;;;13.77;;
48849;SDS011;63210;53.370;6.770;2022-10-22T07:05:32;24.95;;;13.70;;
48849;SDS011;63210;53.370;6.770;2022-10-22T07:07:57;24.75;;;13.77;;
48849;SDS011;63210;53.370;6.770;2022-10-22T07:10:22;22.73;;;13.73;;
48849;SDS011;63210;53.370;6.770;2022-10-22T07:12:50;26.33;;;13.18;;
48849;SDS011;63210;53.370;6.770;2022-10-22T07:15:18;28.50;;;14.10;;
48849;SDS011;63210;53.370;6.770;2022-10-22T07:17:44;26.50;;;13.32;;
48849;SDS011;63210;53.370;6.770;2022-10-22T07:20:09;23.90;;;13.70;;
48849;SDS011;63210;53.370;6.770;2022-10-22T07:22:35;26.17;;;13.63;;
48849;SDS011;63210;53.370;6.770;2022-10-22T07:25:00;22.10;;;13.13;;
48849;SDS011;63210;53.370;6.770;2022-10-22T07:27:28;20.23;;;12.52;;
48849;SDS011;63210;53.370;6.770;2022-10-22T07:29:53;23.58;;;13.10;;
48849;SDS011;63210;53.370;6.770;2022-10-22T07:32:21;19.92;;;12.00;;
48849;SDS011;63210;53.370;6.770;2022-10-22T07:34:49;20.75;;;11.52;;
48849;SDS011;63210;53.370;6.770;2022-10-22T07:37:15;24.83;;;13.63;;
48849;SDS011;63210;53.370;6.770;2022-10-22T07:39:43;25.00;;;11.50;;
48849;SDS011;63210;53.370;6.770;2022-10-22T07:42:13;20.85;;;11.32;;
48849;SDS011;63210;53.370;6.770;2022-10-22T07:44:39;19.35;;;11.10;;
48849;SDS011;63210;53.370;6.770;2022-10-22T07:47:16;23.75;;;12.65;;
48849;SDS011;63210;53.370;6.770;2022-10-22T07:49:52;18.20;;;11.10;;
48849;SDS011;63210;53.370;6.770;2022-10-22T07:52:19;18.75;;;11.95;;
48849;SDS011;63210;53.370;6.770;2022-10-22T07:54:48;16.25;;;10.60;;
48849;SDS011;63210;53.370;6.770;2022-10-22T07:57:13;20.75;;;10.95;;
48849;SDS011;63210;53.370;6.770;2022-10-22T07:59:44;18.27;;;10.30;;
48849;SDS011;63210;53.370;6.770;2022-10-22T08:02:18;17.92;;;10.10;;
48849;SDS011;63210;53.370;6.770;2022-10-22T08:04:43;19.77;;;8.93;;
48849;SDS011;63210;53.370;6.770;2022-10-22T08:07:22;17.55;;;9.18;;
48849;SDS011;63210;53.370;6.770;2022-10-22T08:09:54;19.52;;;11.15;;
48849;SDS011;63210;53.370;6.770;2022-10-22T08:12:21;15.20;;;8.63;;
48849;SDS011;63210;53.370;6.770;2022-10-22T08:14:50;13.13;;;7.97;;
48849;SDS011;63210;53.370;6.770;2022-10-22T08:19:51;19.60;;;10.05;;
48849;SDS011;63210;53.370;6.770;2022-10-22T08:22:19;13.65;;;8.55;;
48849;SDS011;63210;53.370;6.770;2022-10-22T08:24:54;17.10;;;9.77;;
48849;SDS011;63210;53.370;6.770;2022-10-22T08:27:20;14.52;;;8.60;;
48849;SDS011;63210;53.370;6.770;2022-10-22T08:32:44;15.77;;;8.60;;
48849;SDS011;63210;53.370;6.770;2022-10-22T08:35:48;19.38;;;8.88;;
48849;SDS011;63210;53.370;6.770;2022-10-22T08:38:15;16.10;;;8.88;;
48849;SDS011;63210;53.370;6.770;2022-10-22T08:40:46;15.82;;;7.93;;
48849;SDS011;63210;53.370;6.770;2022-10-22T08:48:07;15.27;;;7.53;;
48849;SDS011;63210;53.370;6.770;2022-10-22T08:50:39;15.73;;;7.50;;
48849;SDS011;63210;53.370;6.770;2022-10-22T08:53:06;12.20;;;7.20;;
48849;SDS011;63210;53.370;6.770;2022-10-22T08:55:32;16.48;;;7.40;;
48849;SDS011;63210;53.370;6.770;2022-10-22T09:00:36;12.70;;;7.32;;
48849;SDS011;63210;53.370;6.770;2022-10-22T09:06:04;15.70;;;6.70;;
48849;SDS011;63210;53.370;6.770;2022-10-22T09:08:32;10.70;;;6.03;;
48849;SDS011;63210;53.370;6.770;2022-10-22T09:13:43;13.27;;;6.77;;
48849;SDS011;63210;53.370;6.770;2022-10-22T09:24:08;11.10;;;5.68;;
48849;SDS011;63210;53.370;6.770;2022-10-22T09:26:36;15.77;;;5.72;;
48849;SDS011;63210;53.370;6.770;2022-10-22T09:29:02;11.02;;;5.15;;
48849;SDS011;63210;53.370;6.770;2022-10-22T09:31:29;15.05;;;5.70;;
48849;SDS011;63210;53.370;6.770;2022-10-22T09:33:55;11.63;;;4.97;;
48849;SDS011;63210;53.370;6.770;2022-10-22T09:36:27;13.43;;;5.30;;
48849;SDS011;63210;53.370;6.770;2022-10-22T09:38:52;10.65;;;4.43;;
48849;SDS011;63210;53.370;6.770;2022-10-22T09:41:18;11.40;;;4.72;;
48849;SDS011;63210;53.370;6.770;2022-10-22T09:43:46;13.43;;;5.38;;
48849;SDS011;63210;53.370;6.770;2022-10-22T09:46:16;12.10;;;5.47;;
48849;SDS011;63210;53.370;6.770;2022-10-22T09:48:48;12.63;;;4.47;;
48849;SDS011;63210;53.370;6.770;2022-10-22T09:53:58;16.15;;;4.80;;
48849;SDS011;63210;53.370;6.770;2022-10-22T09:56:26;10.68;;;4.32;;
48849;SDS011;63210;53.370;6.770;2022-10-22T09:58:53;12.32;;;4.55;;
48849;SDS011;63210;53.370;6.770;2022-10-22T10:01:23;12.05;;;4.20;;
48849;SDS011;63210;53.370;6.770;2022-10-22T10:03:49;11.43;;;3.92;;
48849;SDS011;63210;53.370;6.770;2022-10-22T10:06:18;12.85;;;4.20;;
48849;SDS011;63210;53.370;6.770;2022-10-22T10:08:44;11.52;;;4.43;;
48849;SDS011;63210;53.370;6.770;2022-10-22T10:11:31;13.93;;;4.38;;
48849;SDS011;63210;53.370;6.770;2022-10-22T10:14:09;11.02;;;4.00;;
48849;SDS011;63210;53.370;6.770;2022-10-22T10:27:03;12.93;;;4.22;;
48849;SDS011;63210;53.370;6.770;2022-10-22T10:34:47;9.73;;;4.28;;
48849;SDS011;63210;53.370;6.770;2022-10-22T10:37:24;11.27;;;4.20;;
48849;SDS011;63210;53.370;6.770;2022-10-22T10:42:26;12.17;;;4.53;;
48849;SDS011;63210;53.370;6.770;2022-10-22T10:50:13;10.83;;;4.20;;
48849;SDS011;63210;53.370;6.770;2022-10-22T10:52:44;15.85;;;4.55;;
48849;SDS011;63210;53.370;6.770;2022-10-22T10:55:30;17.02;;;5.05;;
48849;SDS011;63210;53.370;6.770;2022-10-22T10:58:02;14.10;;;5.30;;
48849;SDS011;63210;53.370;6.770;2022-10-22T11:00:31;13.60;;;5.57;;
48849;SDS011;63210;53.370;6.770;2022-10-22T11:03:02;10.60;;;4.63;;
48849;SDS011;63210;53.370;6.770;2022-10-22T11:08:01;17.85;;;4.90;;
48849;SDS011;63210;53.370;6.770;2022-10-22T11:10:44;11.00;;;4.15;;
48849;SDS011;63210;53.370;6.770;2022-10-22T11:13:13;14.57;;;4.88;;
48849;SDS011;63210;53.370;6.770;2022-10-22T11:15:44;12.65;;;5.07;;
48849;SDS011;63210;53.370;6.770;2022-10-22T11:18:13;10.60;;;4.47;;
48849;SDS011;63210;53.370;6.770;2022-10-22T11:20:43;11.55;;;5.78;;
48849;SDS011;63210;53.370;6.770;2022-10-22T11:23:16;13.00;;;5.57;;
48849;SDS011;63210;53.370;6.770;2022-10-22T11:25:46;16.42;;;6.22;;
48849;SDS011;63210;53.370;6.770;2022-10-22T11:28:26;11.18;;;4.47;;
48849;SDS011;63210;53.370;6.770;2022-10-22T11:30:59;11.98;;;4.85;;
48849;SDS011;63210;53.370;6.770;2022-10-22T11:33:27;11.57;;;4.45;;
48849;SDS011;63210;53.370;6.770;2022-10-22T11:36:01;15.63;;;6.30;;
48849;SDS011;63210;53.370;6.770;2022-10-22T11:38:28;11.23;;;4.60;;
48849;SDS011;63210;53.370;6.770;2022-10-22T11:40:56;9.85;;;5.30;;
48849;SDS011;63210;53.370;6.770;2022-10-22T11:43:28;7.20;;;4.85;;
48849;SDS011;63210;53.370;6.770;2022-10-22T11:46:33;11.05;;;4.45;;
48849;SDS011;63210;53.370;6.770;2022-10-22T11:49:16;10.45;;;3.95;;
48849;SDS011;63210;53.370;6.770;2022-10-22T11:51:41;9.07;;;4.32;;
48849;SDS011;63210;53.370;6.770;2022-10-22T11:56:51;6.68;;;2.90;;
48849;SDS011;63210;53.370;6.770;2022-10-22T11:59:38;7.85;;;2.95;;
48849;SDS011;63210;53.370;6.770;2022-10-22T12:02:20;6.03;;;2.90;;
48849;SDS011;63210;53.370;6.770;2022-10-22T12:04:46;9.27;;;4.00;;
48849;SDS011;63210;53.370;6.770;2022-10-22T12:07:29;10.95;;;3.88;;
48849;SDS011;63210;53.370;6.770;2022-10-22T12:09:56;8.23;;;4.22;;
48849;SDS011;63210;53.370;6.770;2022-10-22T12:12:21;14.48;;;5.13;;
48849;SDS011;63210;53.370;6.770;2022-10-22T12:14:51;14.20;;;5.90;;
48849;SDS011;63210;53.370;6.770;2022-10-22T12:17:16;9.15;;;5.25;;
48849;SDS011;63210;53.370;6.770;2022-10-22T12:19:43;11.45;;;5.13;;
48849;SDS011;63210;53.370;6.770;2022-10-22T12:24:38;11.60;;;5.93;;
48849;SDS011;63210;53.370;6.770;2022-10-22T12:27:53;14.68;;;7.75;;
48849;SDS011;63210;53.370;6.770;2022-10-22T12:29:56;15.02;;;6.82;;
48849;SDS011;63210;53.370;6.770;2022-10-22T12:32:22;11.90;;;7.35;;
48849;SDS011;63210;53.370;6.770;2022-10-22T12:34:49;17.27;;;7.15;;
48849;SDS011;63210;53.370;6.770;2022-10-22T12:37:15;10.85;;;6.80;;
48849;SDS011;63210;53.370;6.770;2022-10-22T12:39:41;12.05;;;6.30;;
48849;SDS011;63210;53.370;6.770;2022-10-22T12:42:09;9.10;;;6.30;;
48849;SDS011;63210;53.370;6.770;2022-10-22T12:44:34;13.10;;;7.50;;
48849;SDS011;63210;53.370;6.770;2022-10-22T12:47:00;14.82;;;7.38;;
48849;SDS011;63210;53.370;6.770;2022-10-22T12:49:32;15.85;;;6.85;;
48849;SDS011;63210;53.370;6.770;2022-10-22T12:51:59;10.45;;;5.97;;
48849;SDS011;63210;53.370;6.770;2022-10-22T12:54:26;11.32;;;5.88;;
48849;SDS011;63210;53.370;6.770;2022-10-22T12:56:52;15.13;;;5.75;;
48849;SDS011;63210;53.370;6.770;2022-10-22T12:59:21;11.20;;;6.10;;
48849;SDS011;63210;53.370;6.770;2022-10-22T13:01:48;13.57;;;5.80;;
48849;SDS011;63210;53.370;6.770;2022-10-22T13:06:42;13.77;;;5.30;;
48849;SDS011;63210;53.370;6.770;2022-10-22T13:11:50;13.00;;;4.30;;
48849;SDS011;63210;53.370;6.770;2022-10-22T13:14:24;10.88;;;3.92;;
48849;SDS011;63210;53.370;6.770;2022-10-22T13:17:10;12.18;;;4.65;;
48849;SDS011;63210;53.370;6.770;2022-10-22T13:24:57;16.85;;;6.40;;
48849;SDS011;63210;53.370;6.770;2022-10-22T13:27:24;13.63;;;7.47;;
48849;SDS011;63210;53.370;6.770;2022-10-22T13:29:50;14.10;;;6.78;;
48849;SDS011;63210;53.370;6.770;2022-10-22T13:32:31;17.70;;;7.20;;
48849;SDS011;63210;53.370;6.770;2022-10-22T13:34:57;13.05;;;6.32;;
48849;SDS011;63210;53.370;6.770;2022-10-22T13:37:23;14.68;;;6.05;;
48849;SDS011;63210;53.370;6.770;2022-10-22T13:39:48;11.30;;;4.07;;
48849;SDS011;63210;53.370;6.770;2022-10-22T13:42:13;12.98;;;4.10;;
48849;SDS011;63210;53.370;6.770;2022-10-22T13:44:39;9.40;;;3.53;;
48849;SDS011;63210;53.370;6.770;2022-10-22T13:47:07;12.43;;;3.75;;
48849;SDS011;63210;53.370;6.770;2022-10-22T13:49:38;7.65;;;3.15;;
48849;SDS011;63210;53.370;6.770;2022-10-22T13:52:08;12.23;;;2.80;;
48849;SDS011;63210;53.370;6.770;2022-10-22T13:54:34;12.48;;;3.08;;
48849;SDS011;63210;53.370;6.770;2022-10-22T13:57:00;9.82;;;2.13;;
48849;SDS011;63210;53.370;6.770;2022-10-22T13:59:26;7.43;;;1.95;;
48849;SDS011;63210;53.370;6.770;2022-10-22T14:01:51;7.70;;;1.70;;
48849;SDS011;63210;53.370;6.770;2022-10-22T14:04:16;7.50;;;1.20;;
48849;SDS011;63210;53.370;6.770;2022-10-22T14:06:41;9.52;;;3.15;;
48849;SDS011;63210;53.370;6.770;2022-10-22T14:09:13;6.70;;;1.20;;
48849;SDS011;63210;53.370;6.770;2022-10-22T14:11:42;6.18;;;1.48;;
48849;SDS011;63210;53.370;6.770;2022-10-22T14:14:13;8.15;;;1.73;;
48849;SDS011;63210;53.370;6.770;2022-10-22T14:16:41;8.10;;;1.77;;
48849;SDS011;63210;53.370;6.770;2022-10-22T14:19:06;6.20;;;1.65;;
48849;SDS011;63210;53.370;6.770;2022-10-22T14:21:35;8.02;;;2.08;;
48849;SDS011;63210;53.370;6.770;2022-10-22T14:24:04;11.82;;;2.75;;
48849;SDS011;63210;53.370;6.770;2022-10-22T14:26:38;10.73;;;1.95;;
48849;SDS011;63210;53.370;6.770;2022-10-22T14:29:12;5.50;;;1.65;;
48849;SDS011;63210;53.370;6.770;2022-10-22T14:31:49;6.78;;;1.50;;
48849;SDS011;63210;53.370;6.770;2022-10-22T14:34:15;5.93;;;1.95;;
48849;SDS011;63210;53.370;6.770;2022-10-22T14:36:45;9.77;;;2.67;;
48849;SDS011;63210;53.370;6.770;2022-10-22T14:39:11;10.77;;;2.30;;
48849;SDS011;63210;53.370;6.770;2022-10-22T14:41:39;8.18;;;1.40;;
48849;SDS011;63210;53.370;6.770;2022-10-22T14:44:05;8.38;;;2.20;;
48849;SDS011;63210;53.370;6.770;2022-10-22T14:46:30;7.20;;;1.55;;
48849;SDS011;63210;53.370;6.770;2022-10-22T14:48:56;8.75;;;2.10;;
48849;SDS011;63210;53.370;6.770;2022-10-22T14:51:21;5.18;;;1.60;;
48849;SDS011;63210;53.370;6.770;2022-10-22T14:53:47;8.60;;;2.60;;
48849;SDS011;63210;53.370;6.770;2022-10-22T14:56:16;8.93;;;1.70;;
48849;SDS011;63210;53.370;6.770;2022-10-22T14:58:42;6.97;;;2.33;;
48849;SDS011;63210;53.370;6.770;2022-10-22T15:01:11;10.27;;;1.90;;
48849;SDS011;63210;53.370;6.770;2022-10-22T15:03:38;7.38;;;2.10;;
48849;SDS011;63210;53.370;6.770;2022-10-22T15:06:12;9.88;;;2.10;;
48849;SDS011;63210;53.370;6.770;2022-10-22T15:08:40;5.15;;;1.70;;
48849;SDS011;63210;53.370;6.770;2022-10-22T15:11:06;9.48;;;1.80;;
48849;SDS011;63210;53.370;6.770;2022-10-22T15:13:32;7.63;;;2.53;;
48849;SDS011;63210;53.370;6.770;2022-10-22T15:15:58;5.47;;;1.50;;
48849;SDS011;63210;53.370;6.770;2022-10-22T15:18:24;11.02;;;1.85;;
48849;SDS011;63210;53.370;6.770;2022-10-22T15:23:41;5.47;;;1.83;;
48849;SDS011;63210;53.370;6.770;2022-10-22T15:26:10;8.63;;;1.83;;
48849;SDS011;63210;53.370;6.770;2022-10-22T15:28:36;7.00;;;1.50;;
48849;SDS011;63210;53.370;6.770;2022-10-22T15:31:01;8.98;;;1.63;;
48849;SDS011;63210;53.370;6.770;2022-10-22T15:33:27;4.85;;;1.23;;
48849;SDS011;63210;53.370;6.770;2022-10-22T15:35:56;5.28;;;2.05;;
48849;SDS011;63210;53.370;6.770;2022-10-22T15:38:27;4.22;;;1.45;;
48849;SDS011;63210;53.370;6.770;2022-10-22T15:41:26;7.65;;;1.63;;
48849;SDS011;63210;53.370;6.770;2022-10-22T15:43:47;9.38;;;2.00;;
48849;SDS011;63210;53.370;6.770;2022-10-22T15:46:17;8.07;;;1.73;;
48849;SDS011;63210;53.370;6.770;2022-10-22T15:48:43;8.88;;;1.90;;
48849;SDS011;63210;53.370;6.770;2022-10-22T15:51:15;6.30;;;1.63;;
48849;SDS011;63210;53.370;6.770;2022-10-22T15:53:41;10.70;;;1.83;;
48849;SDS011;63210;53.370;6.770;2022-10-22T15:56:07;6.32;;;1.60;;
48849;SDS011;63210;53.370;6.770;2022-10-22T15:58:32;6.18;;;1.58;;
48849;SDS011;63210;53.370;6.770;2022-10-22T16:01:13;8.07;;;1.98;;
48849;SDS011;63210;53.370;6.770;2022-10-22T16:03:38;5.97;;;1.80;;
48849;SDS011;63210;53.370;6.770;2022-10-22T16:06:04;12.98;;;2.20;;
48849;SDS011;63210;53.370;6.770;2022-10-22T16:08:30;12.82;;;2.75;;
48849;SDS011;63210;53.370;6.770;2022-10-22T16:10:55;9.55;;;1.80;;
48849;SDS011;63210;53.370;6.770;2022-10-22T16:13:21;12.45;;;2.30;;
48849;SDS011;63210;53.370;6.770;2022-10-22T16:15:48;8.38;;;2.20;;
48849;SDS011;63210;53.370;6.770;2022-10-22T16:18:13;12.13;;;1.80;;
48849;SDS011;63210;53.370;6.770;2022-10-22T16:20:39;10.80;;;2.63;;
48849;SDS011;63210;53.370;6.770;2022-10-22T16:23:04;14.85;;;2.25;;